createdAt,value
2023-05-08T00:01:36.206Z,3.08
2023-05-08T00:04:03.613Z,2.60
2023-05-08T00:06:31.305Z,2.13
2023-05-08T00:08:58.397Z,1.88
2023-05-08T00:11:26.582Z,2.25
2023-05-08T00:13:54.691Z,2.00
2023-05-08T00:16:21.744Z,2.05
2023-05-08T00:18:49.138Z,2.63
2023-05-08T00:21:16.358Z,2.47
2023-05-08T00:23:44.097Z,2.30
2023-05-08T00:26:11.273Z,1.63
2023-05-08T00:28:38.623Z,2.35
2023-05-08T00:31:08.488Z,1.95
2023-05-08T00:33:35.780Z,2.42
2023-05-08T00:36:04.805Z,2.53
2023-05-08T00:38:36.758Z,2.50
2023-05-08T00:41:04.586Z,2.47
2023-05-08T00:43:31.740Z,3.08
2023-05-08T00:46:01.612Z,3.22
2023-05-08T00:48:34.480Z,2.65
2023-05-08T00:51:04.887Z,2.70
2023-05-08T00:53:36.336Z,3.13
2023-05-08T00:56:05.306Z,3.00
2023-05-08T00:58:33.789Z,3.15
2023-05-08T01:01:01.935Z,3.15
2023-05-08T01:03:29.374Z,2.63
2023-05-08T01:05:56.820Z,3.20
2023-05-08T01:08:24.113Z,3.13
2023-05-08T01:11:18.647Z,3.00
2023-05-08T01:14:16.704Z,3.42
2023-05-08T01:17:09.647Z,3.10
2023-05-08T01:20:11.114Z,3.55
2023-05-08T01:22:50.742Z,3.25
2023-05-08T01:25:56.129Z,2.50
2023-05-08T01:28:32.520Z,2.45
2023-05-08T01:31:22.098Z,2.88
2023-05-08T01:34:23.214Z,2.88
2023-05-08T01:37:21.385Z,2.40
2023-05-08T01:40:03.617Z,2.67
2023-05-08T01:42:59.412Z,2.60
2023-05-08T01:45:39.591Z,2.88
2023-05-08T01:48:11.193Z,2.65
2023-05-08T01:53:29.424Z,2.83
2023-05-08T01:56:01.173Z,2.63
2023-05-08T01:58:31.151Z,2.70
2023-05-08T02:01:03.269Z,2.22
2023-05-08T02:03:34.042Z,3.00
2023-05-08T02:06:03.331Z,2.90
2023-05-08T02:08:33.698Z,2.33
2023-05-08T02:11:02.218Z,2.55
2023-05-08T02:13:32.305Z,2.50
2023-05-08T02:16:02.652Z,2.53
2023-05-08T02:18:32.363Z,2.65
2023-05-08T02:21:05.298Z,2.47
2023-05-08T02:23:35.848Z,2.50
2023-05-08T02:26:04.801Z,2.65
2023-05-08T02:28:33.621Z,2.45
2023-05-08T02:31:01.931Z,2.42
2023-05-08T02:33:33.579Z,2.58
2023-05-08T02:36:02.806Z,2.72
2023-05-08T02:38:32.259Z,2.72
2023-05-08T02:41:05.761Z,2.92
2023-05-08T02:46:37.914Z,2.97
2023-05-08T02:49:20.567Z,2.70
2023-05-08T02:52:05.380Z,2.40
2023-05-08T02:55:05.543Z,2.65
2023-05-08T02:57:44.273Z,2.45
2023-05-08T03:03:27.597Z,2.75
2023-05-08T03:06:00.091Z,2.83
2023-05-08T03:08:34.584Z,2.87
2023-05-08T03:11:08.394Z,2.85
2023-05-08T03:13:37.167Z,3.05
2023-05-08T03:16:07.098Z,3.08
2023-05-08T03:19:00.306Z,2.88
2023-05-08T03:21:30.918Z,2.63
2023-05-08T03:24:02.409Z,3.05
2023-05-08T03:26:30.165Z,3.17
2023-05-08T03:28:59.280Z,3.40
2023-05-08T03:31:33.498Z,3.17
2023-05-08T03:34:05.540Z,3.80
2023-05-08T03:36:32.904Z,3.58
2023-05-08T03:39:01.319Z,3.35
2023-05-08T03:41:28.728Z,3.88
2023-05-08T03:43:57.394Z,2.88
2023-05-08T03:46:26.046Z,3.33
2023-05-08T03:48:54.754Z,3.50
2023-05-08T03:51:22.956Z,2.78
2023-05-08T03:53:51.326Z,3.55
2023-05-08T03:56:19.084Z,3.70
2023-05-08T03:58:53.302Z,3.40
2023-05-08T04:01:28.872Z,3.50
2023-05-08T04:04:30.549Z,4.03
2023-05-08T04:07:08.621Z,3.33
2023-05-08T04:10:07.050Z,3.28
2023-05-08T04:13:06.838Z,4.18
2023-05-08T04:15:44.075Z,3.65
2023-05-08T04:18:16.656Z,3.80
2023-05-08T04:20:48.214Z,3.72
2023-05-08T04:23:20.028Z,3.60
2023-05-08T04:25:49.822Z,4.32
2023-05-08T04:28:18.922Z,4.55
2023-05-08T04:30:47.119Z,3.92
2023-05-08T04:33:15.289Z,4.60
2023-05-08T04:35:42.622Z,4.18
2023-05-08T04:38:09.820Z,3.80
2023-05-08T04:40:37.236Z,4.53
2023-05-08T04:43:04.555Z,4.53
2023-05-08T04:45:31.855Z,4.25
2023-05-08T04:47:59.156Z,4.32
2023-05-08T04:50:26.327Z,3.90
2023-05-08T04:52:53.383Z,4.15
2023-05-08T04:55:23.345Z,4.68
2023-05-08T04:57:50.438Z,4.18
2023-05-08T05:00:18.188Z,4.45
2023-05-08T05:02:47.738Z,4.57
2023-05-08T05:05:15.247Z,4.40
2023-05-08T05:07:42.804Z,4.38
2023-05-08T05:10:11.390Z,4.38
2023-05-08T05:12:39.110Z,4.40
2023-05-08T05:15:09.120Z,4.53
2023-05-08T05:17:37.996Z,4.30
2023-05-08T05:20:07.836Z,4.50
2023-05-08T05:22:34.993Z,4.22
2023-05-08T05:25:02.150Z,4.38
2023-05-08T05:27:29.566Z,4.32
2023-05-08T05:29:58.804Z,4.32
2023-05-08T05:32:30.567Z,4.85
2023-05-08T05:34:57.988Z,4.35
2023-05-08T05:37:27.529Z,4.07
2023-05-08T05:39:55.176Z,4.85
2023-05-08T05:42:28.774Z,5.03
2023-05-08T05:44:57.119Z,5.00
2023-05-08T05:47:24.202Z,4.50
2023-05-08T05:49:52.186Z,4.85
2023-05-08T05:52:19.457Z,4.90
2023-05-08T05:54:46.911Z,4.88
2023-05-08T05:57:14.358Z,5.13
2023-05-08T05:59:42.193Z,4.80
2023-05-08T06:02:10.666Z,5.43
2023-05-08T06:04:40.996Z,5.10
2023-05-08T06:07:08.664Z,4.88
2023-05-08T06:09:36.899Z,6.13
2023-05-08T06:12:04.228Z,5.05
2023-05-08T06:14:31.389Z,5.97
2023-05-08T06:16:58.873Z,6.97
2023-05-08T06:19:26.462Z,6.40
2023-05-08T06:21:53.882Z,6.20
2023-05-08T06:24:21.117Z,6.07
2023-05-08T06:26:48.208Z,7.65
2023-05-08T06:29:15.589Z,5.97
2023-05-08T06:31:43.147Z,6.32
2023-05-08T06:34:20.662Z,6.35
2023-05-08T06:36:48.060Z,6.90
2023-05-08T06:39:17.614Z,6.75
2023-05-08T06:41:51.854Z,6.47
2023-05-08T06:46:55.858Z,6.95
2023-05-08T06:49:23.227Z,6.70
2023-05-08T06:51:50.491Z,7.40
2023-05-08T06:54:18.122Z,7.88
2023-05-08T06:56:46.284Z,7.93
2023-05-08T06:59:13.449Z,7.65
2023-05-08T07:01:41.935Z,8.15
2023-05-08T07:04:09.116Z,7.75
2023-05-08T07:06:36.336Z,7.95
2023-05-08T07:09:03.756Z,7.85
2023-05-08T07:11:30.852Z,7.82
2023-05-08T07:13:58.027Z,6.40
2023-05-08T07:16:25.415Z,6.75
2023-05-08T07:18:52.564Z,5.93
2023-05-08T07:21:21.412Z,5.65
2023-05-08T07:23:51.836Z,5.63
2023-05-08T07:26:19.025Z,5.75
2023-05-08T07:28:46.134Z,5.53
2023-05-08T07:31:16.780Z,5.13
2023-05-08T07:33:43.999Z,5.35
2023-05-08T07:36:11.403Z,4.72
2023-05-08T07:38:38.730Z,5.57
2023-05-08T07:41:05.861Z,5.00
2023-05-08T07:43:37.466Z,5.18
2023-05-08T07:46:05.590Z,4.43
2023-05-08T07:48:32.700Z,4.22
2023-05-08T07:51:00.308Z,3.67
2023-05-08T07:53:27.806Z,3.53
2023-05-08T07:55:54.966Z,3.72
2023-05-08T07:58:23.669Z,3.97
2023-05-08T08:00:51.529Z,4.43
2023-05-08T08:03:18.789Z,4.13
2023-05-08T08:05:48.474Z,3.40
2023-05-08T08:08:15.844Z,3.15
2023-05-08T08:10:52.137Z,3.42
2023-05-08T08:13:19.318Z,3.22
2023-05-08T08:15:49.609Z,3.63
2023-05-08T08:18:18.055Z,3.55
2023-05-08T08:20:45.312Z,3.00
2023-05-08T08:23:13.465Z,3.28
2023-05-08T08:25:40.748Z,2.90
2023-05-08T08:28:08.067Z,3.33
2023-05-08T08:30:36.352Z,3.28
2023-05-08T08:33:05.401Z,3.35
2023-05-08T08:35:33.855Z,3.45
2023-05-08T08:38:01.415Z,3.47
2023-05-08T08:40:34.058Z,2.95
2023-05-08T08:43:01.240Z,3.58
2023-05-08T08:45:28.295Z,3.22
2023-05-08T08:47:58.814Z,4.50
2023-05-08T08:50:27.438Z,5.40
2023-05-08T08:53:21.769Z,5.10
2023-05-08T08:55:52.807Z,6.22
2023-05-08T08:58:48.529Z,4.93
2023-05-08T09:01:19.548Z,5.07
2023-05-08T09:03:50.091Z,5.00
2023-05-08T09:06:20.642Z,4.90
2023-05-08T09:08:47.816Z,5.15
2023-05-08T09:11:15.116Z,4.90
2023-05-08T09:13:42.403Z,5.50
2023-05-08T09:16:09.631Z,6.22
2023-05-08T09:18:39.283Z,5.65
2023-05-08T09:21:07.265Z,5.60
2023-05-08T09:23:47.358Z,5.15
2023-05-08T09:26:33.057Z,5.10
2023-05-08T09:29:20.351Z,5.32
2023-05-08T09:31:53.902Z,5.20
2023-05-08T09:34:33.822Z,4.82
2023-05-08T09:37:10.396Z,5.00
2023-05-08T09:39:39.991Z,5.47
2023-05-08T09:42:07.685Z,5.50
2023-05-08T09:44:49.959Z,5.90
2023-05-08T09:47:22.276Z,5.70
2023-05-08T09:50:01.062Z,6.72
2023-05-08T09:52:32.957Z,5.50
2023-05-08T09:55:02.604Z,5.03
2023-05-08T09:57:34.405Z,5.57
2023-05-08T10:00:08.236Z,5.57
2023-05-08T10:02:39.183Z,5.40
2023-05-08T10:05:30.326Z,5.47
2023-05-08T10:08:01.613Z,5.60
2023-05-08T10:10:33.551Z,6.07
2023-05-08T10:13:00.873Z,6.07
2023-05-08T10:15:31.785Z,6.57
2023-05-08T10:18:07.176Z,5.72
2023-05-08T10:20:40.777Z,5.90
2023-05-08T10:23:16.038Z,5.07
2023-05-08T10:25:46.459Z,5.50
2023-05-08T10:28:43.017Z,6.13
2023-05-08T10:31:14.817Z,5.05
2023-05-08T10:33:48.976Z,4.72
2023-05-08T10:36:17.071Z,5.65
2023-05-08T10:38:48.356Z,4.93
2023-05-08T10:41:16.080Z,4.45
2023-05-08T10:43:43.725Z,5.88
2023-05-08T10:46:49.661Z,7.68
2023-05-08T10:49:20.381Z,5.30
2023-05-08T10:51:53.490Z,5.50
2023-05-08T10:54:59.323Z,5.90
2023-05-08T10:57:29.802Z,4.68
2023-05-08T11:00:00.416Z,5.40
2023-05-08T11:02:35.123Z,5.30
2023-05-08T11:05:18.985Z,4.32
2023-05-08T11:08:14.778Z,5.32
2023-05-08T11:10:42.984Z,4.72
2023-05-08T11:13:12.535Z,4.97
2023-05-08T11:15:42.192Z,4.68
2023-05-08T11:18:11.784Z,5.22
2023-05-08T11:20:41.280Z,5.18
2023-05-08T11:23:42.754Z,6.57
2023-05-08T11:26:15.041Z,5.15
2023-05-08T11:28:54.712Z,5.40
2023-05-08T11:31:21.908Z,5.80
2023-05-08T11:33:49.723Z,5.68
2023-05-08T11:36:23.385Z,6.70
2023-05-08T11:39:12.873Z,6.38
2023-05-08T11:41:40.220Z,5.82
2023-05-08T11:44:20.771Z,6.13
2023-05-08T11:46:56.345Z,5.85
2023-05-08T11:49:29.562Z,6.55
2023-05-08T11:54:29.500Z,6.55
2023-05-08T11:57:00.604Z,5.82
2023-05-08T11:59:37.881Z,6.30
2023-05-08T12:02:09.436Z,6.00
2023-05-08T12:04:46.111Z,5.75
2023-05-08T12:07:16.743Z,5.35
2023-05-08T12:09:44.208Z,5.20
2023-05-08T12:12:16.035Z,4.43
2023-05-08T12:14:58.735Z,3.10
2023-05-08T12:17:26.021Z,4.53
2023-05-08T12:19:56.902Z,3.15
2023-05-08T12:22:28.156Z,3.63
2023-05-08T12:24:58.900Z,3.60
2023-05-08T12:27:29.600Z,3.30
2023-05-08T12:29:58.095Z,3.97
2023-05-08T12:32:26.650Z,3.17
2023-05-08T12:34:56.046Z,3.72
2023-05-08T12:37:29.745Z,3.17
2023-05-08T12:39:57.887Z,3.10
2023-05-08T12:42:42.936Z,2.60
2023-05-08T12:45:28.342Z,3.30
2023-05-08T12:48:04.407Z,4.55
2023-05-08T12:50:39.009Z,3.63
2023-05-08T12:53:11.340Z,3.20
2023-05-08T12:55:41.595Z,3.13
2023-05-08T12:58:15.031Z,3.08
2023-05-08T13:00:47.589Z,2.45
2023-05-08T13:03:24.176Z,2.25
2023-05-08T13:05:53.087Z,2.70
2023-05-08T13:08:30.399Z,2.40
2023-05-08T13:10:57.648Z,2.70
2023-05-08T13:13:28.372Z,2.20
2023-05-08T13:15:56.294Z,2.35
2023-05-08T13:18:28.059Z,2.20
2023-05-08T13:20:56.526Z,2.17
2023-05-08T13:23:24.700Z,2.42
2023-05-08T13:25:54.204Z,2.45
2023-05-08T13:28:26.677Z,2.28
2023-05-08T13:30:53.822Z,2.72
2023-05-08T13:33:21.023Z,3.05
2023-05-08T13:35:51.252Z,2.58
2023-05-08T13:38:24.425Z,3.13
2023-05-08T13:40:54.729Z,2.90
2023-05-08T13:43:23.270Z,2.03
2023-05-08T13:45:54.277Z,2.67
2023-05-08T13:48:21.668Z,2.92
2023-05-08T13:51:02.929Z,2.83
2023-05-08T13:53:37.050Z,2.85
2023-05-08T13:56:04.407Z,2.35
2023-05-08T13:58:34.706Z,3.28
2023-05-08T14:01:25.081Z,2.80
2023-05-08T14:03:58.500Z,3.30
2023-05-08T14:06:31.056Z,3.75
2023-05-08T14:08:58.587Z,4.10
2023-05-08T14:14:32.221Z,3.38
2023-05-08T14:17:08.352Z,3.43
2023-05-08T14:22:10.388Z,3.10
2023-05-08T14:24:38.346Z,3.88
2023-05-08T14:27:06.422Z,3.40
2023-05-08T14:29:34.418Z,3.70
2023-05-08T14:32:01.960Z,3.30
2023-05-08T14:34:29.215Z,3.10
2023-05-08T14:36:56.643Z,3.22
2023-05-08T14:39:23.771Z,3.20
2023-05-08T14:42:14.264Z,2.83
2023-05-08T14:44:38.454Z,3.15
2023-05-08T14:47:10.458Z,3.72
2023-05-08T14:49:38.950Z,3.45
2023-05-08T14:52:07.575Z,3.25
2023-05-08T14:54:34.917Z,3.80
2023-05-08T14:57:02.405Z,3.72
2023-05-08T14:59:32.379Z,3.13
2023-05-08T15:01:59.922Z,3.30
2023-05-08T15:04:27.396Z,3.08
2023-05-08T15:06:55.478Z,3.22
2023-05-08T15:09:25.858Z,3.15
2023-05-08T15:11:53.233Z,2.80
2023-05-08T15:14:20.325Z,3.47
2023-05-08T15:16:47.486Z,2.65
2023-05-08T15:19:14.880Z,2.70
2023-05-08T15:21:42.057Z,2.40
2023-05-08T15:24:09.556Z,3.00
2023-05-08T15:26:36.829Z,3.53
2023-05-08T15:29:03.956Z,4.57
2023-05-08T15:31:31.550Z,2.88
2023-05-08T15:33:59.178Z,3.38
2023-05-08T15:36:28.541Z,3.80
2023-05-08T15:38:55.948Z,3.13
2023-05-08T15:41:23.158Z,2.63
2023-05-08T15:43:50.208Z,2.50
2023-05-08T15:46:17.657Z,2.78
2023-05-08T15:48:44.812Z,2.30
2023-05-08T15:51:13.338Z,3.03
2023-05-08T15:53:41.833Z,2.40
2023-05-08T15:56:10.985Z,2.78
2023-05-08T15:58:39.234Z,2.95
2023-05-08T16:01:06.552Z,3.20
2023-05-08T16:03:34.306Z,2.80
2023-05-08T16:06:01.753Z,2.50
2023-05-08T16:08:31.133Z,3.00
2023-05-08T16:10:58.281Z,2.85
2023-05-08T16:13:25.646Z,3.28
2023-05-08T16:15:52.905Z,3.47
2023-05-08T16:18:23.432Z,2.72
2023-05-08T16:20:50.714Z,3.25
2023-05-08T16:23:17.711Z,2.92
2023-05-08T16:25:44.758Z,3.30
2023-05-08T16:28:14.264Z,3.05
2023-05-08T16:30:44.597Z,2.78
2023-05-08T16:33:12.945Z,2.30
2023-05-08T16:35:43.301Z,2.50
2023-05-08T16:38:10.657Z,2.05
2023-05-08T16:40:38.025Z,2.25
2023-05-08T16:43:05.323Z,2.75
2023-05-08T16:45:34.663Z,2.60
2023-05-08T16:48:05.161Z,2.25
2023-05-08T16:50:32.474Z,2.13
2023-05-08T16:52:59.761Z,2.13
2023-05-08T16:55:27.517Z,2.80
2023-05-08T16:57:54.777Z,2.08
2023-05-08T17:00:23.021Z,2.30
2023-05-08T17:02:50.653Z,1.98
2023-05-08T17:05:18.387Z,2.50
2023-05-08T17:07:45.829Z,2.92
2023-05-08T17:10:15.430Z,3.38
2023-05-08T17:12:42.534Z,2.85
2023-05-08T17:15:10.022Z,2.30
2023-05-08T17:17:37.339Z,2.75
2023-05-08T17:20:13.505Z,3.08
2023-05-08T17:22:43.948Z,2.80
2023-05-08T17:25:11.355Z,3.33
2023-05-08T17:27:39.242Z,3.90
2023-05-08T17:30:08.685Z,3.60
2023-05-08T17:32:36.468Z,3.30
2023-05-08T17:35:04.245Z,3.60
2023-05-08T17:37:33.180Z,2.53
2023-05-08T17:40:06.524Z,3.65
2023-05-08T17:45:05.096Z,3.25
2023-05-08T17:47:32.708Z,2.88
2023-05-08T17:49:59.881Z,3.58
2023-05-08T17:52:27.108Z,2.55
2023-05-08T17:54:54.571Z,3.90
2023-05-08T17:57:25.094Z,3.08
2023-05-08T17:59:52.513Z,3.80
2023-05-08T18:02:19.759Z,3.28
2023-05-08T18:04:47.096Z,2.80
2023-05-08T18:07:14.310Z,3.30
2023-05-08T18:09:41.587Z,3.17
2023-05-08T18:12:08.804Z,3.55
2023-05-08T18:14:36.312Z,3.17
2023-05-08T18:17:03.726Z,3.90
2023-05-08T18:19:32.137Z,2.90
2023-05-08T18:21:59.296Z,3.28
2023-05-08T18:24:29.588Z,3.47
2023-05-08T18:26:58.102Z,7.10
2023-05-08T18:29:28.607Z,6.90
2023-05-08T18:31:57.389Z,6.63
2023-05-08T18:34:25.012Z,6.85
2023-05-08T18:36:57.514Z,6.45
2023-05-08T18:39:25.760Z,5.05
2023-05-08T18:42:03.955Z,4.97
2023-05-08T18:44:31.280Z,4.22
2023-05-08T18:47:01.000Z,3.40
2023-05-08T18:49:28.441Z,3.03
2023-05-08T18:51:55.691Z,3.60
2023-05-08T18:54:27.016Z,3.83
2023-05-08T18:56:58.288Z,3.78
2023-05-08T18:59:26.098Z,3.70
2023-05-08T19:01:53.298Z,3.75
2023-05-08T19:04:20.752Z,4.50
2023-05-08T19:06:49.235Z,4.25
2023-05-08T19:09:16.660Z,4.25
2023-05-08T19:11:56.548Z,4.45
2023-05-08T19:14:31.092Z,3.58
2023-05-08T19:16:58.734Z,4.05
2023-05-08T19:19:26.272Z,4.75
2023-05-08T19:22:00.332Z,5.47
2023-05-08T19:24:36.545Z,5.03
2023-05-08T19:27:05.004Z,4.72
2023-05-08T19:29:34.790Z,4.38
2023-05-08T19:32:14.630Z,4.68
2023-05-08T19:34:47.418Z,4.60
2023-05-08T19:37:15.441Z,4.57
2023-05-08T19:39:43.081Z,4.10
2023-05-08T19:42:14.376Z,5.22
2023-05-08T19:44:45.424Z,5.00
2023-05-08T19:47:15.221Z,5.10
2023-05-08T19:49:42.752Z,4.82
2023-05-08T19:52:10.150Z,5.15
2023-05-08T19:54:37.329Z,4.43
2023-05-08T19:57:07.779Z,4.75
2023-05-08T19:59:35.237Z,5.68
2023-05-08T20:02:02.531Z,5.00
2023-05-08T20:04:36.059Z,5.53
2023-05-08T20:07:16.202Z,5.90
2023-05-08T20:09:43.401Z,6.13
2023-05-08T20:12:10.808Z,5.15
2023-05-08T20:14:38.116Z,5.38
2023-05-08T20:17:05.498Z,6.03
2023-05-08T20:19:32.746Z,5.55
2023-05-08T20:22:00.190Z,5.20
2023-05-08T20:24:29.991Z,6.60
2023-05-08T20:26:57.950Z,5.38
2023-05-08T20:29:25.329Z,5.70
2023-05-08T20:31:52.980Z,6.15
2023-05-08T20:34:21.928Z,6.13
2023-05-08T20:36:49.375Z,6.57
2023-05-08T20:39:16.614Z,6.22
2023-05-08T20:41:43.796Z,6.13
2023-05-08T20:44:12.534Z,6.05
2023-05-08T20:46:43.582Z,5.88
2023-05-08T20:49:10.727Z,6.35
2023-05-08T20:51:37.909Z,6.03
2023-05-08T20:54:05.154Z,5.38
2023-05-08T20:56:32.403Z,5.55
2023-05-08T20:58:59.632Z,10.50
2023-05-08T21:01:26.828Z,7.32
2023-05-08T21:03:53.931Z,7.70
2023-05-08T21:06:21.049Z,6.63
2023-05-08T21:08:48.366Z,6.45
2023-05-08T21:11:16.544Z,6.05
2023-05-08T21:13:49.232Z,6.03
2023-05-08T21:16:19.461Z,6.17
2023-05-08T21:18:46.572Z,6.28
2023-05-08T21:21:20.218Z,6.13
2023-05-08T21:23:47.347Z,5.65
2023-05-08T21:26:16.819Z,5.93
2023-05-08T21:28:43.913Z,6.68
2023-05-08T21:31:11.041Z,6.35
2023-05-08T21:33:38.181Z,6.40
2023-05-08T21:36:05.664Z,6.40
2023-05-08T21:38:32.901Z,7.07
2023-05-08T21:41:07.606Z,7.95
2023-05-08T21:43:36.345Z,6.05
2023-05-08T21:46:05.707Z,6.35
2023-05-08T21:48:33.792Z,6.20
2023-05-08T21:51:01.397Z,6.40
2023-05-08T21:53:29.696Z,6.18
2023-05-08T21:55:56.741Z,6.60
2023-05-08T21:58:23.826Z,6.28
2023-05-08T22:00:51.217Z,6.00
2023-05-08T22:03:19.373Z,6.53
2023-05-08T22:05:46.944Z,7.05
2023-05-08T22:08:14.162Z,6.65
2023-05-08T22:10:44.377Z,7.55
2023-05-08T22:13:12.741Z,7.05
2023-05-08T22:15:39.959Z,5.60
2023-05-08T22:18:07.173Z,6.82
2023-05-08T22:20:34.384Z,6.20
2023-05-08T22:23:01.388Z,6.60
2023-05-08T22:25:28.634Z,5.97
2023-05-08T22:27:55.883Z,6.35
2023-05-08T22:30:23.031Z,6.78
2023-05-08T22:32:56.516Z,7.80
2023-05-08T22:35:25.252Z,6.95
2023-05-08T22:37:53.159Z,5.55
2023-05-08T22:40:21.494Z,6.80
2023-05-08T22:42:54.280Z,5.97
2023-05-08T22:45:22.766Z,6.82
2023-05-08T22:47:49.818Z,6.13
2023-05-08T22:50:17.466Z,5.13
2023-05-08T22:52:44.775Z,5.40
2023-05-08T22:55:12.218Z,5.30
2023-05-08T22:57:39.485Z,5.40
2023-05-08T23:00:09.542Z,5.25
2023-05-08T23:02:36.606Z,5.88
2023-05-08T23:05:04.040Z,5.32
2023-05-08T23:07:31.277Z,4.90
2023-05-08T23:09:58.311Z,5.78
2023-05-08T23:12:25.567Z,5.30
2023-05-08T23:14:52.751Z,5.50
2023-05-08T23:17:19.881Z,4.15
2023-05-08T23:19:46.921Z,4.35
2023-05-08T23:22:14.043Z,4.25
2023-05-08T23:24:41.198Z,3.70
2023-05-08T23:27:08.237Z,4.20
2023-05-08T23:29:38.025Z,3.85
2023-05-08T23:32:05.158Z,4.30
2023-05-08T23:34:32.189Z,4.45
2023-05-08T23:37:00.336Z,4.43
2023-05-08T23:39:27.484Z,4.75
2023-05-08T23:41:54.661Z,5.70
2023-05-08T23:44:21.796Z,4.85
2023-05-08T23:46:49.014Z,4.63
2023-05-08T23:49:16.108Z,5.40
2023-05-08T23:51:43.187Z,5.93
2023-05-08T23:54:10.177Z,5.85
2023-05-08T23:56:37.310Z,6.22
2023-05-08T23:59:04.404Z,5.25
